KGXY/GXY METAR and TAF weather

Enter ICAO airport designator
Station Type Date Time Source
KGXY METAR 2021/09/24 01:56 UTC NOAA

KGXY 240156Z AUTO 03005KT 9SM CLR 21/M01 A3011 RMK AO2 SLP183 T02061011


Station Type Date Time Source
KGXY Decoded METAR 2021/09/24 01:56 UTC NOAA

Greeley, Greeley-Weld County Airport, CO, United States (KGXY) 40-26N 104-38W
Sep 23, 2021 - 09:56 PM EDT / 2021.09.24 0156 UTC
Wind: from the NNE (030 degrees) at 6 MPH (5 KT):0
Visibility: 9 mile(s):0
Sky conditions: clear
Temperature: 69.1 F (20.6 C)
Dew Point: 30.0 F (-1.1 C)
Relative Humidity: 23%
Pressure (altimeter): 30.11 in. Hg (1019 hPa)
ob: KGXY 240156Z AUTO 03005KT 9SM CLR 21/M01 A3011 RMK AO2 SLP183 T02061011
cycle: 2

Station Type Date Time Source
KGXY TAF UTC NOAA

Error!

Example: see airport list